CheckWX is a tool to help pilots better visualize weather data.  It is not intended as a substitute for an official pre-flight weather briefing.

05:15:48 UTC

SBMY METAR
Manicoré Airport
Manicoré, Brazil
Current

11 hours ago

SBMY 191800Z 33002KT 9999 -TSRA SCT012 FEW025CB OVC100 24/24 Q1010
Observed
Mar-19 @ 18:00 UTC
Wind
  • 330° at 2 KTS
Visibility
10,000+ meters
Flight Rules
VFR
Conditions
Light Thunderstorm, Light Rain
Cloud Levels
  • Scattered at 1,200' AGL
  • Few at 2,500' AGL
  • Overcast at 10,000' AGL
Temperature
24°C / 75°F
Dewpoint
24°C / 75°F
Humidity
100%
Altimeter
29.82" Hg
Pressure
1009.92 hPa
Previous

13 hours ago

SBMY 191600Z 11010KT 5000 TSRA SCT025CB OVC100 24/23 Q1013
Observed
Mar-19 @ 16:00 UTC
Wind
  • 110° at 10 KTS
Visibility
5,005 meters
Flight Rules
MVFR
Conditions
Thunderstorm, Rain
Cloud Levels
  • Scattered at 2,500' AGL
  • Overcast at 10,000' AGL
Temperature
24°C / 75°F
Dewpoint
23°C / 73°F
Humidity
94%
Altimeter
29.91" Hg
Pressure
1012.92 hPa
Previous

14 hours ago

SBMY 191500Z 10004KT 9999 SCT017 31/25 Q1012
Observed
Mar-19 @ 15:00 UTC
Wind
  • 100° at 4 KTS
Visibility
10,000+ meters
Flight Rules
VFR
Cloud Levels
  • Scattered at 1,700' AGL
Temperature
31°C / 88°F
Dewpoint
25°C / 77°F
Humidity
70%
Altimeter
29.88" Hg
Pressure
1011.92 hPa